createdAt,value
2023-01-17T00:02:13.489Z,18.50
2023-01-17T00:05:00.121Z,15.80
2023-01-17T00:07:46.803Z,18.90
2023-01-17T00:10:20.249Z,18.30
2023-01-17T00:12:50.292Z,17.80
2023-01-17T00:15:20.077Z,15.40
2023-01-17T00:17:48.693Z,20.20
2023-01-17T00:20:36.759Z,18.40
2023-01-17T00:23:37.969Z,20.00
2023-01-17T00:26:16.831Z,19.30
2023-01-17T00:28:45.025Z,16.60
2023-01-17T00:31:14.532Z,17.70
2023-01-17T00:33:42.443Z,19.70
2023-01-17T00:36:10.529Z,18.40
2023-01-17T00:38:39.343Z,18.80
2023-01-17T00:41:09.713Z,16.50
2023-01-17T00:43:56.334Z,19.10
2023-01-17T00:46:43.059Z,17.20
2023-01-17T00:49:29.782Z,18.80
2023-01-17T00:52:16.412Z,18.30
2023-01-17T00:55:03.160Z,20.70
2023-01-17T00:57:50.006Z,20.70
2023-01-17T01:00:39.597Z,20.90
2023-01-17T01:03:29.712Z,21.50
2023-01-17T01:06:16.885Z,21.90
2023-01-17T01:09:03.485Z,21.90
2023-01-17T01:11:50.226Z,21.80
2023-01-17T01:14:36.988Z,21.90
2023-01-17T01:17:23.597Z,22.90
2023-01-17T01:20:10.064Z,22.40
2023-01-17T01:22:56.664Z,21.50
2023-01-17T01:25:43.305Z,20.80
2023-01-17T01:28:32.192Z,23.50
2023-01-17T01:31:20.406Z,22.40
2023-01-17T01:33:48.479Z,18.30
2023-01-17T01:36:16.344Z,24.30
2023-01-17T01:38:44.340Z,23.60
2023-01-17T01:41:12.322Z,22.40
2023-01-17T01:43:53.898Z,20.90
2023-01-17T01:46:30.776Z,19.40
2023-01-17T01:49:20.918Z,17.40
2023-01-17T01:51:53.730Z,15.70
2023-01-17T01:54:25.661Z,17.00
2023-01-17T01:56:54.175Z,19.40
2023-01-17T01:59:22.179Z,15.90
2023-01-17T02:01:51.804Z,19.30
2023-01-17T02:04:19.955Z,17.00
2023-01-17T02:06:51.195Z,15.80
2023-01-17T02:09:19.045Z,17.90
2023-01-17T02:11:47.455Z,19.50
2023-01-17T02:14:19.618Z,16.60
2023-01-17T02:17:24.196Z,17.90
2023-01-17T02:20:20.243Z,17.50
2023-01-17T02:23:25.862Z,16.10
2023-01-17T02:26:23.103Z,16.10
2023-01-17T02:29:08.013Z,16.70
2023-01-17T02:31:41.393Z,16.80
2023-01-17T02:34:35.586Z,18.20
2023-01-17T02:37:08.311Z,16.80
2023-01-17T02:40:03.392Z,16.60
2023-01-17T02:42:42.612Z,15.40
2023-01-17T02:45:19.702Z,18.50
2023-01-17T02:47:47.592Z,17.00
2023-01-17T02:50:22.228Z,15.90
2023-01-17T02:53:17.595Z,17.20
2023-01-17T02:56:11.850Z,16.40
2023-01-17T02:58:57.949Z,14.60
2023-01-17T03:01:48.106Z,17.20
2023-01-17T03:04:20.884Z,18.80
2023-01-17T03:06:54.489Z,16.10
2023-01-17T03:09:22.374Z,19.20
2023-01-17T03:11:50.274Z,18.30
2023-01-17T03:14:18.264Z,16.50
2023-01-17T03:16:46.254Z,18.40
2023-01-17T03:19:14.910Z,18.60
2023-01-17T03:21:43.057Z,20.20
2023-01-17T03:24:11.129Z,18.70
2023-01-17T03:26:39.168Z,18.70
2023-01-17T03:29:07.198Z,20.00
2023-01-17T03:31:35.102Z,18.90
2023-01-17T03:34:03.046Z,17.70
2023-01-17T03:36:30.942Z,18.70
2023-01-17T03:38:58.663Z,20.20
2023-01-17T03:41:26.588Z,16.40
2023-01-17T03:43:54.496Z,20.80
2023-01-17T03:46:26.478Z,18.60
2023-01-17T03:48:54.555Z,20.40
2023-01-17T03:51:22.428Z,18.90
2023-01-17T03:53:51.990Z,19.60
2023-01-17T03:56:20.073Z,21.40
2023-01-17T03:58:47.914Z,18.80
2023-01-17T04:01:15.893Z,19.40
2023-01-17T04:03:43.918Z,18.70
2023-01-17T04:06:11.924Z,18.90
2023-01-17T04:08:39.847Z,21.70
2023-01-17T04:11:07.760Z,20.40
2023-01-17T04:13:35.670Z,20.80
2023-01-17T04:16:03.923Z,22.10
2023-01-17T04:18:31.890Z,23.90
2023-01-17T04:20:59.983Z,22.40
2023-01-17T04:23:27.805Z,21.70
2023-01-17T04:25:55.747Z,23.50
2023-01-17T04:28:23.753Z,22.60
2023-01-17T04:30:51.765Z,22.80
2023-01-17T04:33:19.952Z,23.50
2023-01-17T04:35:47.948Z,22.10
2023-01-17T04:38:15.790Z,25.20
2023-01-17T04:40:43.604Z,21.40
2023-01-17T04:43:11.508Z,25.30
2023-01-17T04:45:39.618Z,26.70
2023-01-17T04:48:07.967Z,27.20
2023-01-17T04:50:35.854Z,23.30
2023-01-17T04:53:03.647Z,24.30
2023-01-17T04:55:31.706Z,20.60
2023-01-17T04:57:59.687Z,17.60
2023-01-17T05:00:27.692Z,23.20
2023-01-17T05:02:55.565Z,20.10
2023-01-17T05:05:23.478Z,19.80
2023-01-17T05:07:55.919Z,18.60
2023-01-17T05:10:24.488Z,20.90
2023-01-17T05:12:57.043Z,20.70
2023-01-17T05:15:25.483Z,21.00
2023-01-17T05:17:53.830Z,18.20
2023-01-17T05:20:23.057Z,18.80
2023-01-17T05:22:57.851Z,18.10
2023-01-17T05:25:28.629Z,17.40
2023-01-17T05:27:57.240Z,16.90
2023-01-17T05:30:24.970Z,16.90
2023-01-17T05:32:54.269Z,16.30
2023-01-17T05:35:32.627Z,17.60
2023-01-17T05:38:00.767Z,16.00
2023-01-17T05:40:30.892Z,14.70
2023-01-17T05:42:59.530Z,11.50
2023-01-17T05:45:28.925Z,15.90
2023-01-17T05:47:57.356Z,13.60
2023-01-17T05:50:30.884Z,16.10
2023-01-17T05:53:04.617Z,14.30
2023-01-17T05:55:33.108Z,13.10
2023-01-17T05:58:01.189Z,14.80
2023-01-17T06:00:29.385Z,12.50
2023-01-17T06:02:58.764Z,14.70
2023-01-17T06:05:27.588Z,14.20
2023-01-17T06:07:56.655Z,13.20
2023-01-17T06:10:24.918Z,15.40
2023-01-17T06:13:07.912Z,14.20
2023-01-17T06:15:37.235Z,12.50
2023-01-17T06:18:10.795Z,12.20
2023-01-17T06:20:39.677Z,11.80
2023-01-17T06:23:12.531Z,9.20
2023-01-17T06:25:45.328Z,9.30
2023-01-17T06:28:16.077Z,10.20
2023-01-17T06:30:44.614Z,8.80
2023-01-17T06:33:12.981Z,9.70
2023-01-17T06:35:47.663Z,9.80
2023-01-17T06:38:15.668Z,8.80
2023-01-17T06:40:43.441Z,10.00
2023-01-17T06:43:11.529Z,9.50
2023-01-17T06:45:39.444Z,10.00
2023-01-17T06:48:07.293Z,9.30
2023-01-17T06:50:35.180Z,10.10
2023-01-17T06:53:05.929Z,10.60
2023-01-17T06:55:34.924Z,9.40
2023-01-17T06:58:03.244Z,11.00
2023-01-17T07:00:31.937Z,10.70
2023-01-17T07:03:00.107Z,12.70
2023-01-17T07:05:28.649Z,13.10
2023-01-17T07:08:00.133Z,9.90
2023-01-17T07:10:28.015Z,11.80
2023-01-17T07:13:00.696Z,12.70
2023-01-17T07:15:28.716Z,10.10
2023-01-17T07:17:56.439Z,8.90
2023-01-17T07:20:24.454Z,8.50
2023-01-17T07:22:52.405Z,8.50
2023-01-17T07:25:20.288Z,10.50
2023-01-17T07:27:48.170Z,13.90
2023-01-17T07:30:16.463Z,12.90
2023-01-17T07:32:44.395Z,16.90
2023-01-17T07:35:12.368Z,10.60
2023-01-17T07:37:40.429Z,14.90
2023-01-17T07:40:09.857Z,27.90
2023-01-17T07:42:37.769Z,30.60
2023-01-17T07:45:07.094Z,19.90
2023-01-17T07:47:34.848Z,16.20
2023-01-17T07:50:04.185Z,11.70
2023-01-17T07:52:32.228Z,11.90
2023-01-17T07:55:00.190Z,11.00
2023-01-17T07:57:28.962Z,11.40
2023-01-17T07:59:56.914Z,12.10
2023-01-17T08:02:24.801Z,11.30
2023-01-17T08:04:52.714Z,12.30
2023-01-17T08:07:20.675Z,11.50
2023-01-17T08:09:50.237Z,11.40
2023-01-17T08:12:18.391Z,12.20
2023-01-17T08:14:46.258Z,13.50
2023-01-17T08:17:20.496Z,12.40
2023-01-17T08:19:52.329Z,10.80
2023-01-17T08:22:20.322Z,11.40
2023-01-17T08:24:48.769Z,11.10
2023-01-17T08:27:16.720Z,11.90
2023-01-17T08:29:48.363Z,13.10
2023-01-17T08:32:16.440Z,12.90
2023-01-17T08:34:44.496Z,11.80
2023-01-17T08:37:12.448Z,11.20
2023-01-17T08:39:40.437Z,12.70
2023-01-17T08:42:08.374Z,13.80
2023-01-17T08:44:36.430Z,13.60
2023-01-17T08:47:04.315Z,12.70
2023-01-17T08:49:32.204Z,16.70
2023-01-17T08:52:00.233Z,14.40
2023-01-17T08:54:29.083Z,13.90
2023-01-17T08:56:56.956Z,13.10
2023-01-17T08:59:24.871Z,13.20
2023-01-17T09:01:54.534Z,12.40
2023-01-17T09:04:22.741Z,14.80
2023-01-17T09:06:50.823Z,11.00
2023-01-17T09:09:18.808Z,12.20
2023-01-17T09:11:46.778Z,13.40
2023-01-17T09:14:14.558Z,13.50
2023-01-17T09:16:42.313Z,12.00
2023-01-17T09:19:10.487Z,12.90
2023-01-17T09:21:38.449Z,11.50
2023-01-17T09:24:06.788Z,13.10
2023-01-17T09:26:34.817Z,12.10
2023-01-17T09:29:02.743Z,11.80
2023-01-17T09:31:30.824Z,10.90
2023-01-17T09:33:58.789Z,10.90
2023-01-17T09:36:33.861Z,11.80
2023-01-17T09:39:02.344Z,10.00
2023-01-17T09:41:32.609Z,12.20
2023-01-17T09:44:18.166Z,10.80
2023-01-17T09:46:47.504Z,13.20
2023-01-17T09:49:38.011Z,13.70
2023-01-17T09:52:06.585Z,12.50
2023-01-17T09:54:45.516Z,12.90
2023-01-17T09:57:44.725Z,12.70
2023-01-17T10:00:36.405Z,10.00
2023-01-17T10:03:43.137Z,13.30
2023-01-17T10:07:02.180Z,10.30
2023-01-17T10:09:37.703Z,11.30
2023-01-17T10:12:51.133Z,13.00
2023-01-17T10:15:42.016Z,14.90
2023-01-17T10:18:51.013Z,14.30
2023-01-17T10:21:27.195Z,11.00
2023-01-17T10:24:41.504Z,11.10
2023-01-17T10:27:23.778Z,10.00
2023-01-17T10:29:51.937Z,11.60
2023-01-17T10:32:22.199Z,10.20
2023-01-17T10:34:51.841Z,10.00
2023-01-17T10:41:20.428Z,14.00
2023-01-17T10:44:20.690Z,15.30
2023-01-17T10:47:09.964Z,12.60
2023-01-17T10:49:48.284Z,14.20
2023-01-17T10:52:33.335Z,11.90
2023-01-17T10:55:23.037Z,14.50
2023-01-17T10:57:49.765Z,13.80
2023-01-17T11:00:22.175Z,10.90
2023-01-17T11:02:49.992Z,12.20
2023-01-17T11:05:30.393Z,17.70
2023-01-17T11:08:11.148Z,16.40
2023-01-17T11:10:44.615Z,18.30
2023-01-17T11:13:31.120Z,41.60
2023-01-17T11:16:10.477Z,26.80
2023-01-17T11:18:40.047Z,23.20
2023-01-17T11:21:16.780Z,26.70
2023-01-17T11:23:48.195Z,18.90
2023-01-17T11:26:46.884Z,18.70
2023-01-17T11:29:37.076Z,19.70
2023-01-17T11:32:28.683Z,15.00
2023-01-17T11:35:20.529Z,14.20
2023-01-17T11:37:52.666Z,11.70
2023-01-17T11:40:42.400Z,11.70
2023-01-17T11:43:12.303Z,9.90
2023-01-17T11:45:39.644Z,10.50
2023-01-17T11:48:12.022Z,11.40
2023-01-17T11:50:57.190Z,10.60
2023-01-17T11:53:36.090Z,15.90
2023-01-17T11:56:16.508Z,13.60
2023-01-17T11:58:45.277Z,12.40
2023-01-17T12:01:41.623Z,11.60
2023-01-17T12:04:19.334Z,11.60
2023-01-17T12:07:06.052Z,10.40
2023-01-17T12:09:51.419Z,9.20
2023-01-17T12:13:14.745Z,9.60
2023-01-17T12:15:59.740Z,9.20
2023-01-17T12:18:44.106Z,13.10
2023-01-17T12:21:27.863Z,10.10
2023-01-17T12:24:00.272Z,14.80
2023-01-17T12:26:58.586Z,11.50
2023-01-17T12:29:43.380Z,13.60
2023-01-17T12:32:57.870Z,11.80
2023-01-17T12:35:52.987Z,10.10
2023-01-17T12:38:38.629Z,14.70
2023-01-17T12:41:25.860Z,10.20
2023-01-17T12:43:58.566Z,10.50
2023-01-17T12:46:42.530Z,11.70
2023-01-17T12:49:30.586Z,13.20
2023-01-17T12:52:12.071Z,8.80
2023-01-17T12:54:42.077Z,14.30
2023-01-17T12:57:16.383Z,26.50
2023-01-17T13:00:07.803Z,14.40
2023-01-17T13:03:34.250Z,11.80
2023-01-17T13:06:00.708Z,8.50
2023-01-17T13:08:43.234Z,8.90
2023-01-17T13:11:19.818Z,8.50
2023-01-17T13:13:50.074Z,7.60
2023-01-17T13:16:42.876Z,9.50
2023-01-17T13:19:18.612Z,7.60
2023-01-17T13:21:45.578Z,8.20
2023-01-17T13:24:32.700Z,11.00
2023-01-17T13:27:28.640Z,9.90
2023-01-17T13:30:17.827Z,9.40
2023-01-17T13:32:56.347Z,9.20
2023-01-17T13:35:43.669Z,7.80
2023-01-17T13:39:11.581Z,10.50
2023-01-17T13:41:56.416Z,9.80
2023-01-17T13:44:25.686Z,8.70
2023-01-17T13:47:01.655Z,10.50
2023-01-17T13:49:28.500Z,12.40
2023-01-17T13:52:11.731Z,13.40
2023-01-17T13:55:02.342Z,8.10
2023-01-17T13:57:45.559Z,10.80
2023-01-17T14:00:15.750Z,9.40
2023-01-17T14:02:42.514Z,10.10
2023-01-17T14:05:17.981Z,11.90
2023-01-17T14:07:49.331Z,10.40
2023-01-17T14:10:47.367Z,9.40
2023-01-17T14:13:36.868Z,8.80
2023-01-17T14:16:27.709Z,10.30
2023-01-17T14:18:55.028Z,9.90
2023-01-17T14:21:27.753Z,10.90
2023-01-17T14:24:04.939Z,13.00
2023-01-17T14:26:55.360Z,14.80
2023-01-17T14:29:55.250Z,10.70
2023-01-17T14:32:25.600Z,12.40
2023-01-17T14:34:52.876Z,13.30
2023-01-17T14:37:47.837Z,8.50
2023-01-17T14:40:17.672Z,10.90
2023-01-17T14:42:44.332Z,12.10
2023-01-17T14:45:21.926Z,14.30
2023-01-17T14:47:50.843Z,13.50
2023-01-17T14:50:17.402Z,16.50
2023-01-17T14:52:46.737Z,20.40
2023-01-17T14:55:19.289Z,29.60
2023-01-17T14:57:55.223Z,42.40
2023-01-17T15:00:24.579Z,41.70
2023-01-17T15:02:52.450Z,57.30
2023-01-17T15:05:20.779Z,48.20
2023-01-17T15:07:52.621Z,49.10
2023-01-17T15:10:28.652Z,48.50
2023-01-17T15:12:56.514Z,45.40
2023-01-17T15:15:37.624Z,48.70
2023-01-17T15:18:13.485Z,50.50
2023-01-17T15:20:48.407Z,45.30
2023-01-17T15:23:18.258Z,40.20
2023-01-17T15:25:47.019Z,36.90
2023-01-17T15:28:13.544Z,40.80
2023-01-17T15:31:22.592Z,31.60
2023-01-17T15:33:55.165Z,25.30
2023-01-17T15:36:31.816Z,18.70
2023-01-17T15:39:06.601Z,25.50
2023-01-17T15:41:37.524Z,41.80
2023-01-17T15:44:04.434Z,36.80
2023-01-17T15:46:42.838Z,32.30
2023-01-17T15:49:20.851Z,34.50
2023-01-17T15:52:09.681Z,33.30
2023-01-17T15:54:55.951Z,39.20
2023-01-17T15:57:32.384Z,40.50
2023-01-17T16:00:19.521Z,30.30
2023-01-17T16:02:54.398Z,26.10
2023-01-17T16:05:21.379Z,23.20
2023-01-17T16:07:55.684Z,20.30
2023-01-17T16:10:37.413Z,15.80
2023-01-17T16:13:05.819Z,19.40
2023-01-17T16:15:34.579Z,16.40
2023-01-17T16:18:25.148Z,15.60
2023-01-17T16:20:59.045Z,17.40
2023-01-17T16:23:27.154Z,20.10
2023-01-17T16:25:53.671Z,19.10
2023-01-17T16:28:20.549Z,23.40
2023-01-17T16:30:48.339Z,19.80
2023-01-17T16:33:14.896Z,20.50
2023-01-17T16:35:42.379Z,19.20
2023-01-17T16:38:14.986Z,21.70
2023-01-17T16:40:43.907Z,22.60
2023-01-17T16:43:13.223Z,29.10
2023-01-17T16:45:48.026Z,25.30
2023-01-17T16:48:14.768Z,25.30
2023-01-17T16:50:47.763Z,26.00
2023-01-17T16:53:15.123Z,27.40
2023-01-17T16:55:42.118Z,24.30
2023-01-17T16:58:08.698Z,23.90
2023-01-17T17:00:35.227Z,30.50
2023-01-17T17:03:01.961Z,30.30
2023-01-17T17:05:29.972Z,37.40
2023-01-17T17:07:57.140Z,41.30
2023-01-17T17:10:24.583Z,41.60
2023-01-17T17:12:51.449Z,38.20
2023-01-17T17:15:18.173Z,58.30
2023-01-17T17:17:44.741Z,58.70
2023-01-17T17:20:13.395Z,52.10
2023-01-17T17:22:42.915Z,54.00
2023-01-17T17:25:11.141Z,43.80
2023-01-17T17:27:37.781Z,51.40
2023-01-17T17:30:05.570Z,44.10
2023-01-17T17:32:32.068Z,46.90
2023-01-17T17:34:58.801Z,44.40
2023-01-17T17:37:28.292Z,50.60
2023-01-17T17:39:56.042Z,46.60
2023-01-17T17:42:22.851Z,52.30
2023-01-17T17:44:49.601Z,46.50
2023-01-17T17:47:16.078Z,44.80
2023-01-17T17:49:42.883Z,44.00
2023-01-17T17:52:09.524Z,47.70
2023-01-17T17:54:36.370Z,42.00
2023-01-17T17:57:03.044Z,55.30
2023-01-17T17:59:30.586Z,49.20
2023-01-17T18:01:59.054Z,56.50
2023-01-17T18:04:25.904Z,63.70
2023-01-17T18:06:56.687Z,67.00
2023-01-17T18:09:23.165Z,75.50
2023-01-17T18:11:49.714Z,83.60
2023-01-17T18:14:20.191Z,85.80
2023-01-17T18:16:47.159Z,84.90
2023-01-17T18:19:19.851Z,85.00
2023-01-17T18:21:46.491Z,81.20
2023-01-17T18:24:14.583Z,77.00
2023-01-17T18:26:43.603Z,69.20
2023-01-17T18:29:14.140Z,67.40
2023-01-17T18:31:42.332Z,72.90
2023-01-17T18:34:12.357Z,71.70
2023-01-17T18:36:38.912Z,62.10
2023-01-17T18:39:18.250Z,59.00
2023-01-17T18:41:45.147Z,59.80
2023-01-17T18:44:11.847Z,63.60
2023-01-17T18:46:39.561Z,57.40
2023-01-17T18:49:06.294Z,51.80
2023-01-17T18:51:33.842Z,57.20
2023-01-17T18:54:03.630Z,61.20
2023-01-17T18:56:33.573Z,59.20
2023-01-17T18:59:01.324Z,51.70
2023-01-17T19:01:29.886Z,58.00
2023-01-17T19:03:58.328Z,60.20
2023-01-17T19:06:33.605Z,59.70
2023-01-17T19:09:00.184Z,59.00
2023-01-17T19:11:27.206Z,65.70
2023-01-17T19:13:54.149Z,58.50
2023-01-17T19:16:29.530Z,66.60
2023-01-17T19:18:58.206Z,72.50
2023-01-17T19:21:26.682Z,75.30
2023-01-17T19:23:54.178Z,68.00
2023-01-17T19:26:22.464Z,60.60
2023-01-17T19:28:49.331Z,68.10
2023-01-17T19:31:19.854Z,66.40
2023-01-17T19:33:47.364Z,54.10
2023-01-17T19:36:20.800Z,59.40
2023-01-17T19:39:02.987Z,56.50
2023-01-17T19:41:30.576Z,56.20
2023-01-17T19:44:01.553Z,64.40
2023-01-17T19:46:28.446Z,52.50
2023-01-17T19:48:55.796Z,57.10
2023-01-17T19:51:22.545Z,54.70
2023-01-17T19:53:49.265Z,58.70
2023-01-17T19:56:18.238Z,55.50
2023-01-17T19:58:45.998Z,48.00
2023-01-17T20:01:21.164Z,51.30
2023-01-17T20:03:48.265Z,58.60
2023-01-17T20:06:21.007Z,55.20
2023-01-17T20:08:47.813Z,52.80
2023-01-17T20:11:20.056Z,55.30
2023-01-17T20:13:47.876Z,56.20
2023-01-17T20:16:15.658Z,50.60
2023-01-17T20:18:42.507Z,46.30
2023-01-17T20:21:17.290Z,46.50
2023-01-17T20:23:46.328Z,54.00
2023-01-17T20:26:21.892Z,58.60
2023-01-17T20:28:50.786Z,47.60
2023-01-17T20:31:22.849Z,49.70
2023-01-17T20:33:49.755Z,63.00
2023-01-17T20:36:17.330Z,63.10
2023-01-17T20:38:43.871Z,66.10
2023-01-17T20:41:34.183Z,80.30
2023-01-17T20:44:02.006Z,96.50
2023-01-17T20:46:40.225Z,97.40
2023-01-17T20:49:15.884Z,119.00
2023-01-17T20:51:43.463Z,126.70
2023-01-17T20:54:13.633Z,129.00
2023-01-17T20:56:40.417Z,111.80
2023-01-17T20:59:10.939Z,116.30
2023-01-17T21:01:37.688Z,135.10
2023-01-17T21:04:09.307Z,110.10
2023-01-17T21:06:37.999Z,89.20
2023-01-17T21:09:06.679Z,93.10
2023-01-17T21:11:37.050Z,92.00
2023-01-17T21:14:07.691Z,94.70
2023-01-17T21:16:34.363Z,80.20
2023-01-17T21:19:01.043Z,68.30
2023-01-17T21:21:28.613Z,67.00
2023-01-17T21:23:57.082Z,62.20
2023-01-17T21:26:26.611Z,57.40
2023-01-17T21:28:53.358Z,57.40
2023-01-17T21:31:26.007Z,50.60
2023-01-17T21:34:01.663Z,44.70
2023-01-17T21:36:34.240Z,46.70
2023-01-17T21:39:04.033Z,43.90
2023-01-17T21:41:34.064Z,45.50
2023-01-17T21:44:03.836Z,38.40
2023-01-17T21:46:30.222Z,39.20
2023-01-17T21:48:57.086Z,38.40
2023-01-17T21:51:24.129Z,33.80
2023-01-17T21:53:50.871Z,34.90
2023-01-17T21:56:36.083Z,28.90
2023-01-17T21:59:02.746Z,33.70
2023-01-17T22:01:31.613Z,34.70
2023-01-17T22:04:02.678Z,32.00
2023-01-17T22:06:31.765Z,32.60
2023-01-17T22:08:58.673Z,35.10
2023-01-17T22:11:26.229Z,39.20
2023-01-17T22:13:52.875Z,33.00
2023-01-17T22:16:22.805Z,35.00
2023-01-17T22:18:49.729Z,33.30
2023-01-17T22:21:27.621Z,33.20
2023-01-17T22:23:58.627Z,33.30
2023-01-17T22:26:28.397Z,26.60
2023-01-17T22:28:55.215Z,28.60
2023-01-17T22:31:25.134Z,29.70
2023-01-17T22:33:54.168Z,29.00
2023-01-17T22:36:20.863Z,30.40
2023-01-17T22:38:47.646Z,39.40
2023-01-17T22:41:17.063Z,35.70
2023-01-17T22:43:46.403Z,36.40
2023-01-17T22:46:18.942Z,30.10
2023-01-17T22:48:45.520Z,32.60
2023-01-17T22:51:14.436Z,33.00
2023-01-17T22:53:42.239Z,30.50
2023-01-17T22:56:12.199Z,30.70
2023-01-17T22:58:41.724Z,26.50
2023-01-17T23:01:12.729Z,26.90
2023-01-17T23:03:44.111Z,26.60
2023-01-17T23:06:12.963Z,28.00
2023-01-17T23:08:41.705Z,28.30
2023-01-17T23:11:45.566Z,33.10
2023-01-17T23:14:22.153Z,30.80
2023-01-17T23:17:15.994Z,27.30
2023-01-17T23:19:43.605Z,24.00
2023-01-17T23:22:16.608Z,29.00
2023-01-17T23:24:56.852Z,28.30
2023-01-17T23:27:49.732Z,33.60
2023-01-17T23:30:33.820Z,25.30
2023-01-17T23:33:18.498Z,26.60
2023-01-17T23:35:45.643Z,25.70
2023-01-17T23:38:25.801Z,27.90
2023-01-17T23:41:11.815Z,24.90
2023-01-17T23:43:38.331Z,26.30
2023-01-17T23:46:05.224Z,24.80
2023-01-17T23:48:31.826Z,33.40
2023-01-17T23:51:08.859Z,29.80
2023-01-17T23:53:37.278Z,24.20
2023-01-17T23:56:17.629Z,26.80
2023-01-17T23:58:44.145Z,25.40
